Time;durP1;ratioP1;P1;durP2;ratioP2;P2;SDS_P1;SDS_P2;PMS_P1;PMS_P2;Temp;Humidity;BMP_temperature;BMP_pressure;BME280_temperature;BME280_humidity;BME280_pressure;Samples;Min_cycle;Max_cycle;Signal;HPM_P1;HPM_P2
2023/09/11 00:02:22;;;;;;;67.28;50.40;;;;;;;26.32;100.00;98634.19;5107152;27;20100;-86
2023/09/11 00:05:07;;;;;;;64.32;49.35;;;;;;;26.34;100.00;98626.59;5108029;27;20045;-87
2023/09/11 00:07:51;;;;;;;69.78;51.65;;;;;;;26.06;100.00;98608.69;5117325;27;20450;-85
2023/09/11 00:10:35;;;;;;;66.10;49.10;;;;;;;26.21;100.00;98620.19;5131201;27;20162;-86
2023/09/11 00:13:20;;;;;;;66.40;50.55;;;;;;;26.19;100.00;98608.97;5101439;27;20035;-86
2023/09/11 00:16:04;;;;;;;65.65;50.67;;;;;;;26.15;100.00;98603.38;5107553;27;20043;-85
2023/09/11 00:18:48;;;;;;;72.35;50.67;;;;;;;26.14;100.00;98617.09;5106102;27;20560;-87
2023/09/11 00:21:32;;;;;;;72.13;53.03;;;;;;;26.00;100.00;98606.44;5108897;27;20080;-87
2023/09/11 00:24:15;;;;;;;67.95;51.45;;;;;;;26.05;100.00;98615.19;5102937;27;20030;-87
2023/09/11 00:26:59;;;;;;;67.68;51.17;;;;;;;25.98;100.00;98604.06;5103376;27;20047;-87
2023/09/11 00:29:44;;;;;;;72.03;50.78;;;;;;;25.93;100.00;98606.88;5125907;27;20528;-87
2023/09/11 00:32:29;;;;;;;68.90;52.63;;;;;;;26.01;100.00;98606.16;5110782;27;20053;-86
2023/09/11 00:35:13;;;;;;;68.55;52.53;;;;;;;25.84;100.00;98603.34;5127016;27;20132;-86
2023/09/11 00:37:57;;;;;;;79.07;54.67;;;;;;;25.87;100.00;98600.03;5107667;27;20080;-86
2023/09/11 00:40:40;;;;;;;75.28;52.35;;;;;;;25.98;100.00;98612.16;5106888;28;20541;-88
2023/09/11 00:43:24;;;;;;;75.88;53.90;;;;;;;25.94;100.00;98603.91;5102651;28;20500;-89
2023/09/11 00:46:09;;;;;;;80.50;53.03;;;;;;;25.89;100.00;98595.16;5111691;27;20045;-86
2023/09/11 00:48:55;;;;;;;72.97;52.47;;;;;;;25.95;100.00;98600.09;5105791;27;20084;-88
2023/09/11 00:51:39;;;;;;;74.40;54.28;;;;;;;25.94;100.00;98592.31;5108825;27;20034;-87
2023/09/11 00:54:24;;;;;;;81.75;54.97;;;;;;;25.77;100.00;98593.84;5106955;27;20068;-86
2023/09/11 00:57:08;;;;;;;75.10;53.03;;;;;;;25.89;100.00;98595.16;5127281;27;20075;-87
2023/09/11 00:59:53;;;;;;;68.93;52.40;;;;;;;25.52;100.00;98587.19;5103873;28;20039;-86
2023/09/11 01:02:37;;;;;;;61.88;50.83;;;;;;;25.86;100.00;98591.22;5105679;27;20084;-86
2023/09/11 01:05:22;;;;;;;68.35;50.83;;;;;;;25.61;100.00;98589.94;5098988;28;20397;-88
2023/09/11 01:08:06;;;;;;;66.80;48.83;;;;;;;25.76;100.00;98591.44;5117250;27;20046;-87
2023/09/11 01:10:50;;;;;;;64.93;48.88;;;;;;;25.83;100.00;98596.41;5106685;27;20083;-86
2023/09/11 01:13:34;;;;;;;54.67;45.25;;;;;;;25.67;100.00;98599.44;5107364;28;20083;-87
2023/09/11 01:16:45;;;;;;;59.25;46.47;;;;;;;25.70;100.00;98598.06;5121172;27;20478;-86
2023/09/11 01:19:47;;;;;;;57.58;45.72;;;;;;;25.81;100.00;98594.81;5122430;27;20512;-88
2023/09/11 01:22:50;;;;;;;61.30;46.83;;;;;;;25.81;100.00;98592.13;5099119;28;20042;-87
2023/09/11 01:25:59;;;;;;;61.92;45.83;;;;;;;25.77;100.00;98598.41;5113676;27;20042;-86
2023/09/11 01:29:02;;;;;;;61.90;46.92;;;;;;;25.67;100.00;98591.38;5105600;28;20041;-85
2023/09/11 01:31:47;;;;;;;52.13;43.65;;;;;;;25.85;100.00;98588.81;5103618;28;20092;-86
2023/09/11 01:34:31;;;;;;;57.95;45.13;;;;;;;25.68;100.00;98582.22;5107561;28;20038;-86
2023/09/11 01:37:15;;;;;;;58.75;43.78;;;;;;;25.78;100.00;98590.03;5105495;28;20066;-86
2023/09/11 01:39:59;;;;;;;49.92;40.92;;;;;;;25.71;100.00;98578.91;5118389;28;20057;-86
2023/09/11 01:42:53;;;;;;;52.70;39.42;;;;;;;25.74;100.00;98594.44;5107393;28;20057;-86
2023/09/11 01:45:40;;;;;;;46.88;37.83;;;;;;;25.70;100.00;98582.72;5105333;28;20157;-85
2023/09/11 01:48:25;;;;;;;48.10;37.50;;;;;;;25.56;100.00;98592.75;5107715;28;20179;-86
2023/09/11 01:51:11;;;;;;;48.22;38.72;;;;;;;25.59;100.00;98598.28;5105457;28;20046;-88
2023/09/11 01:53:57;;;;;;;47.25;37.60;;;;;;;25.55;100.00;98591.94;5109122;27;20432;-88
2023/09/11 01:56:42;;;;;;;45.58;36.33;;;;;;;25.52;100.00;98592.56;5109770;27;20046;-87
2023/09/11 01:59:26;;;;;;;51.53;36.80;;;;;;;25.57;100.00;98589.75;5105613;27;20092;-86
2023/09/11 02:02:10;;;;;;;42.72;34.17;;;;;;;25.57;100.00;98586.28;5108020;27;20397;-87
2023/09/11 02:04:53;;;;;;;41.70;33.58;;;;;;;25.64;100.00;98584.72;5111591;27;20045;-87
2023/09/11 02:07:37;;;;;;;37.90;31.05;;;;;;;25.37;100.00;98581.03;5110129;27;20039;-86
2023/09/11 02:10:21;;;;;;;35.53;29.02;;;;;;;25.56;100.00;98582.00;5109687;27;20397;-86
2023/09/11 02:13:05;;;;;;;34.53;28.25;;;;;;;25.35;100.00;98583.22;5123459;27;20070;-87
2023/09/11 02:15:49;;;;;;;35.13;27.10;;;;;;;25.52;100.00;98577.22;5113219;27;20073;-89
2023/09/11 02:18:33;;;;;;;31.40;25.73;;;;;;;25.33;100.00;98584.63;5103516;27;20099;-86
2023/09/11 02:21:17;;;;;;;30.27;24.00;;;;;;;25.48;100.00;98581.63;5126311;27;20128;-88
2023/09/11 02:24:02;;;;;;;31.70;24.45;;;;;;;25.53;100.00;98581.47;5125672;27;20090;-88
2023/09/11 02:26:46;;;;;;;31.77;25.67;;;;;;;25.32;100.00;98583.03;5125941;27;20038;-87
2023/09/11 02:29:30;;;;;;;32.05;24.63;;;;;;;25.47;100.00;98589.97;5100753;27;20516;-87
2023/09/11 02:32:14;;;;;;;33.38;24.67;;;;;;;25.36;100.00;98574.06;5107551;27;20070;-87
2023/09/11 02:34:58;;;;;;;33.65;25.42;;;;;;;25.34;100.00;98586.22;5110826;27;20057;-87
2023/09/11 02:37:42;;;;;;;35.90;25.90;;;;;;;25.22;100.00;98571.44;5108498;27;20042;-86
2023/09/11 02:40:25;;;;;;;34.58;27.23;;;;;;;25.19;100.00;98564.00;5110924;27;20035;-86
2023/09/11 02:43:09;;;;;;;33.60;27.35;;;;;;;25.19;100.00;98564.00;5109546;27;20405;-87
2023/09/11 02:45:53;;;;;;;32.17;26.85;;;;;;;25.23;100.00;98570.34;5106977;27;20427;-87
2023/09/11 02:48:44;;;;;;;30.45;24.98;;;;;;;25.31;100.00;98555.41;5124739;27;20087;-88
2023/09/11 02:51:30;;;;;;;34.38;26.52;;;;;;;24.94;100.00;98558.06;5111561;27;20554;-88
2023/09/11 02:54:14;;;;;;;33.53;26.55;;;;;;;25.00;100.00;98563.34;5108850;28;20566;-86
2023/09/11 02:56:58;;;;;;;32.60;27.33;;;;;;;24.94;100.00;98552.72;5111885;27;20038;-87
2023/09/11 02:59:42;;;;;;;34.20;29.23;;;;;;;24.79;100.00;98551.16;5111479;27;20046;-88
2023/09/11 03:02:26;;;;;;;37.42;29.90;;;;;;;24.94;100.00;98547.34;5108006;27;20038;-85
2023/09/11 03:05:11;;;;;;;36.20;29.55;;;;;;;24.95;100.00;98553.50;5122015;27;20447;-85
2023/09/11 03:07:55;;;;;;;36.67;29.30;;;;;;;25.15;100.00;98552.25;5129467;27;20387;-86
2023/09/11 03:10:39;;;;;;;36.75;28.00;;;;;;;24.83;100.00;98550.56;5128588;27;20092;-86
2023/09/11 03:13:23;;;;;;;34.47;26.52;;;;;;;24.94;100.00;98544.66;5104425;27;20054;-86
2023/09/11 03:16:13;;;;;;;29.45;24.73;;;;;;;24.57;100.00;98533.09;5112581;27;20035;-88
2023/09/11 03:18:57;;;;;;;32.80;23.42;;;;;;;24.62;100.00;98530.28;5107532;27;20058;-86
2023/09/11 03:21:41;;;;;;;29.73;23.98;;;;;;;24.59;100.00;98525.53;5102215;27;20054;-85
2023/09/11 03:24:25;;;;;;;30.10;24.08;;;;;;;24.79;100.00;98524.31;5126981;27;20102;-86
2023/09/11 03:27:09;;;;;;;32.92;24.27;;;;;;;24.46;100.00;98532.47;5126380;27;20424;-86
2023/09/11 03:29:53;;;;;;;29.83;23.48;;;;;;;24.66;100.00;98536.63;5109896;27;20450;-87
2023/09/11 03:32:38;;;;;;;25.17;20.17;;;;;;;24.73;100.00;98535.44;5111005;27;20107;-88
2023/09/11 03:35:23;;;;;;;27.42;19.40;;;;;;;24.25;100.00;98545.50;5108458;27;20599;-88
2023/09/11 03:38:07;;;;;;;22.15;19.25;;;;;;;24.48;100.00;98534.88;5115198;27;20049;-86
2023/09/11 03:40:51;;;;;;;25.70;19.20;;;;;;;24.60;100.00;98526.31;5114871;27;20478;-88
2023/09/11 03:43:36;;;;;;;25.30;18.58;;;;;;;24.41;100.00;98529.13;5103218;27;20096;-88
2023/09/11 03:46:20;;;;;;;21.50;17.77;;;;;;;24.07;100.00;98523.84;5104981;27;20043;-88
2023/09/11 03:49:05;;;;;;;20.80;17.77;;;;;;;24.41;100.00;98534.50;5109343;27;20092;-88
2023/09/11 03:51:49;;;;;;;23.48;17.60;;;;;;;24.46;100.00;98520.97;5127820;27;20057;-89
2023/09/11 03:54:33;;;;;;;20.92;17.73;;;;;;;24.42;100.00;98517.31;5104975;27;20060;-87
2023/09/11 03:57:17;;;;;;;23.17;17.88;;;;;;;24.41;100.00;98518.41;5108875;27;20041;-87
2023/09/11 04:00:01;;;;;;;20.80;17.17;;;;;;;24.29;100.00;98522.38;5109378;27;20038;-88
2023/09/11 04:02:45;;;;;;;20.88;16.13;;;;;;;24.39;100.00;98516.00;5127266;27;20427;-88
2023/09/11 04:05:29;;;;;;;17.10;14.95;;;;;;;24.51;100.00;98528.91;5106828;27;20041;-87
2023/09/11 04:08:13;;;;;;;21.02;15.95;;;;;;;24.42;100.00;98528.03;5108611;27;20096;-86
2023/09/11 04:10:58;;;;;;;20.48;15.35;;;;;;;24.37;100.00;98529.72;5108365;27;20511;-86
2023/09/11 04:13:42;;;;;;;18.90;15.15;;;;;;;24.40;100.00;98522.94;5107619;27;20042;-86
2023/09/11 04:16:25;;;;;;;21.73;15.90;;;;;;;24.08;100.00;98530.81;5119215;27;20088;-86
2023/09/11 04:19:10;;;;;;;20.92;16.80;;;;;;;24.11;100.00;98524.06;5102741;27;20499;-88
2023/09/11 04:21:54;;;;;;;18.05;15.77;;;;;;;24.14;100.00;98517.28;5108341;27;20066;-85
2023/09/11 04:24:38;;;;;;;25.25;17.08;;;;;;;24.12;100.00;98519.47;5125947;27;20042;-85
2023/09/11 04:27:22;;;;;;;21.25;16.50;;;;;;;23.84;100.00;98538.97;5102677;27;20088;-85
2023/09/11 04:30:06;;;;;;;19.63;16.23;;;;;;;23.82;100.00;98533.09;5107979;27;20092;-86
2023/09/11 04:32:51;;;;;;;19.65;16.02;;;;;;;23.72;100.00;98536.75;5124116;27;20050;-86
2023/09/11 04:35:35;;;;;;;21.15;15.20;;;;;;;23.68;100.00;98530.41;5102296;27;20520;-86
2023/09/11 04:38:19;;;;;;;17.65;13.93;;;;;;;23.86;100.00;98536.00;5105770;27;20046;-87
2023/09/11 04:41:03;;;;;;;17.17;14.43;;;;;;;23.94;100.00;98532.63;5111087;27;20039;-89
2023/09/11 04:43:47;;;;;;;18.05;13.88;;;;;;;23.73;100.00;98533.00;5122740;27;20533;-88
2023/09/11 04:46:31;;;;;;;16.88;13.43;;;;;;;23.87;100.00;98524.97;5104378;27;20524;-87
2023/09/11 04:49:15;;;;;;;22.25;13.68;;;;;;;23.89;100.00;98540.78;5106871;27;20100;-86
2023/09/11 04:51:59;;;;;;;18.65;12.73;;;;;;;23.60;100.00;98534.56;5104426;27;20100;-86
2023/09/11 04:54:43;;;;;;;19.48;13.85;;;;;;;23.82;100.00;98523.19;5122408;27;20088;-86
2023/09/11 04:57:27;;;;;;;18.10;13.55;;;;;;;23.62;100.00;98547.66;5121066;27;20047;-89
2023/09/11 05:00:13;;;;;;;17.00;13.15;;;;;;;23.96;100.00;98535.81;5123843;27;20038;-87
2023/09/11 05:02:57;;;;;;;21.90;14.00;;;;;;;23.76;100.00;98527.03;5109575;27;20132;-86
2023/09/11 05:05:41;;;;;;;19.42;14.63;;;;;;;23.46;100.00;98533.72;5112360;27;20041;-86
2023/09/11 05:08:25;;;;;;;20.27;14.77;;;;;;;23.57;100.00;98534.34;5104876;27;20054;-88
2023/09/11 05:11:09;;;;;;;19.55;14.13;;;;;;;23.57;100.00;98535.13;5106565;27;20119;-89
2023/09/11 05:13:53;;;;;;;18.50;14.40;;;;;;;23.53;100.00;98531.47;5111734;27;20047;-88
2023/09/11 05:16:38;;;;;;;22.73;15.93;;;;;;;23.50;100.00;98542.78;5104453;27;20053;-87
2023/09/11 05:19:22;;;;;;;21.08;15.35;;;;;;;23.66;100.00;98543.31;5107500;28;20123;-86
2023/09/11 05:22:06;;;;;;;19.67;15.32;;;;;;;23.85;100.00;98540.56;5106385;27;20050;-86
2023/09/11 05:24:51;;;;;;;19.83;15.00;;;;;;;23.73;100.00;98532.22;5118255;27;20054;-87
2023/09/11 05:27:35;;;;;;;17.80;14.77;;;;;;;23.89;100.00;98548.81;5107221;27;20409;-88
2023/09/11 05:30:19;;;;;;;21.20;14.43;;;;;;;23.91;100.00;98552.00;5116565;27;20043;-86
2023/09/11 05:33:04;;;;;;;18.85;13.68;;;;;;;24.13;99.94;98543.31;5102257;28;20042;-87
2023/09/11 05:35:48;;;;;;;16.42;13.40;;;;;;;23.92;99.93;98549.03;5105419;28;20066;-86
2023/09/11 05:38:32;;;;;;;25.38;14.10;;;;;;;23.76;99.65;98563.78;5118873;28;20054;-84
2023/09/11 05:41:16;;;;;;;20.23;13.13;;;;;;;23.75;99.02;98557.59;5108006;28;20073;-85
2023/09/11 05:44:00;;;;;;;15.30;11.80;;;;;;;23.47;99.69;98573.59;5101723;28;20070;-85
2023/09/11 05:46:43;;;;;;;15.07;11.40;;;;;;;23.62;98.61;98575.25;5101917;28;20172;-83
2023/09/11 05:49:28;;;;;;;13.80;10.93;;;;;;;23.78;97.76;98575.81;5111778;28;20084;-87
2023/09/11 05:52:12;;;;;;;18.50;12.07;;;;;;;23.59;98.59;98585.75;5105506;28;20495;-87
2023/09/11 05:54:56;;;;;;;12.77;10.90;;;;;;;23.58;98.26;98592.19;5112808;28;20086;-89
2023/09/11 05:57:40;;;;;;;16.08;10.95;;;;;;;23.46;98.57;98590.75;5122770;28;20042;-89
2023/09/11 06:00:26;;;;;;;12.80;10.43;;;;;;;23.61;97.55;98599.66;5145235;27;20042;-91
2023/09/11 06:03:10;;;;;;;16.35;10.40;;;;;;;23.63;96.94;98605.50;5109863;28;20047;-88
2023/09/11 06:05:55;;;;;;;13.52;10.10;;;;;;;23.64;97.30;98604.44;5118972;28;20046;-90
2023/09/11 06:08:39;;;;;;;12.70;10.05;;;;;;;23.68;97.64;98602.75;5110098;28;20062;-86
2023/09/11 06:11:23;;;;;;;19.77;10.05;;;;;;;23.72;98.01;98606.44;5124446;28;20030;-85
2023/09/11 06:14:07;;;;;;;15.60;11.77;;;;;;;23.84;97.98;98614.00;5098184;28;20050;-84
2023/09/11 06:16:51;;;;;;;16.67;11.88;;;;;;;23.64;98.24;98620.50;5105223;28;20401;-86
2023/09/11 06:19:35;;;;;;;13.10;10.93;;;;;;;24.00;96.92;98622.59;5106678;28;20083;-85
2023/09/11 06:22:19;;;;;;;15.27;9.95;;;;;;;24.16;96.70;98625.84;5100483;28;20127;-86
2023/09/11 06:25:04;;;;;;;12.85;9.63;;;;;;;24.18;96.74;98628.25;5103648;28;20054;-85
2023/09/11 06:27:49;;;;;;;13.85;9.52;;;;;;;24.41;96.01;98620.31;5103547;28;20039;-85
2023/09/11 06:30:34;;;;;;;14.68;10.38;;;;;;;24.26;95.53;98614.13;5119361;28;20046;-84
2023/09/11 06:33:18;;;;;;;13.25;9.40;;;;;;;24.27;95.42;98621.09;5099948;28;20073;-84
2023/09/11 06:36:03;;;;;;;11.82;8.23;;;;;;;24.43;93.12;98618.91;5104396;28;20082;-86
2023/09/11 06:38:46;;;;;;;10.75;8.13;;;;;;;24.59;92.63;98632.84;5103245;27;20495;-84
2023/09/11 06:41:30;;;;;;;11.50;8.40;;;;;;;24.57;92.57;98623.50;5120332;27;20084;-84
2023/09/11 06:44:15;;;;;;;11.13;7.97;;;;;;;24.67;92.00;98632.16;5106085;27;20042;-85
2023/09/11 06:46:59;;;;;;;8.77;7.18;;;;;;;24.82;90.19;98635.66;5105314;27;20064;-81
2023/09/11 06:49:43;;;;;;;13.15;7.78;;;;;;;25.15;88.83;98642.78;5109833;27;20084;-83
2023/09/11 06:52:27;;;;;;;10.40;7.65;;;;;;;25.21;89.08;98636.19;5107579;27;20515;-80
2023/09/11 06:55:12;;;;;;;12.23;7.28;;;;;;;25.36;89.27;98632.41;5118236;27;20541;-82
2023/09/11 06:57:58;;;;;;;10.45;6.95;;;;;;;25.59;88.65;98635.13;5108370;27;20499;-84
2023/09/11 07:00:46;;;;;;;8.77;6.72;;;;;;;25.64;88.38;98629.63;5106607;27;20112;-82
2023/09/11 07:03:30;;;;;;;11.73;7.18;;;;;;;25.92;87.13;98638.38;5109975;27;20033;-81
2023/09/11 07:06:14;;;;;;;9.68;7.15;;;;;;;26.05;86.10;98636.69;5121720;27;20538;-80
2023/09/11 07:08:59;;;;;;;9.57;6.90;;;;;;;26.14;85.21;98638.63;5112387;27;20054;-82
2023/09/11 07:11:43;;;;;;;9.95;6.90;;;;;;;26.29;85.51;98643.66;5103350;28;20105;-81
2023/09/11 07:14:28;;;;;;;12.77;7.05;;;;;;;26.46;84.64;98645.63;5109684;27;20527;-80
2023/09/11 07:17:12;;;;;;;10.45;6.60;;;;;;;26.62;84.64;98637.13;5108228;27;20099;-82
2023/09/11 07:19:56;;;;;;;9.95;6.80;;;;;;;26.88;84.26;98639.16;5106158;27;20041;-82
2023/09/11 07:22:40;;;;;;;12.00;6.80;;;;;;;26.83;83.34;98637.38;5105742;27;20430;-81
2023/09/11 07:25:24;;;;;;;8.40;6.57;;;;;;;26.73;83.23;98649.22;5108609;27;20038;-80
2023/09/11 07:28:12;;;;;;;9.63;6.50;;;;;;;26.54;83.05;98646.78;5105223;27;20042;-82
2023/09/11 07:30:56;;;;;;;9.68;5.82;;;;;;;26.37;83.85;98645.59;5120450;27;20166;-82
2023/09/11 07:33:40;;;;;;;12.85;6.30;;;;;;;26.38;83.64;98636.44;5104364;27;20504;-86
2023/09/11 07:36:27;;;;;;;9.80;5.88;;;;;;;26.44;83.50;98642.47;5113293;27;20113;-82
2023/09/11 07:39:11;;;;;;;11.32;7.30;;;;;;;26.29;82.49;98635.56;5098857;27;20043;-85
2023/09/11 07:41:55;;;;;;;10.30;6.93;;;;;;;25.78;82.09;98640.31;5104844;27;20039;-85
2023/09/11 07:44:39;;;;;;;11.27;6.80;;;;;;;26.03;81.93;98633.53;5123288;27;20046;-84
2023/09/11 07:47:23;;;;;;;9.82;7.07;;;;;;;26.18;81.98;98636.97;5124775;27;20054;-85
2023/09/11 07:50:07;;;;;;;9.68;5.95;;;;;;;26.48;81.47;98637.25;5120757;27;20131;-84
2023/09/11 07:52:52;;;;;;;9.65;6.65;;;;;;;26.49;81.92;98634.25;5121487;27;20046;-86
2023/09/11 07:55:37;;;;;;;11.15;6.72;;;;;;;26.37;81.05;98626.78;5109318;27;20035;-85
2023/09/11 07:58:22;;;;;;;9.40;6.50;;;;;;;26.27;81.32;98637.78;5112132;27;20096;-85
2023/09/11 08:01:06;;;;;;;8.70;6.50;;;;;;;26.45;80.74;98637.88;5107745;28;20038;-84
2023/09/11 08:03:50;;;;;;;9.07;6.03;;;;;;;26.62;80.40;98632.56;5104557;27;20176;-85
2023/09/11 08:06:33;;;;;;;10.32;6.45;;;;;;;26.81;80.70;98643.03;5121546;27;20093;-85
2023/09/11 08:09:18;;;;;;;9.73;6.88;;;;;;;27.01;79.78;98642.81;5121931;27;20039;-84
2023/09/11 08:12:02;;;;;;;11.80;6.90;;;;;;;27.09;79.01;98644.72;5109019;27;20038;-84
2023/09/11 08:14:46;;;;;;;8.90;6.22;;;;;;;27.76;77.98;98640.03;5111130;27;20506;-84
2023/09/11 08:17:31;;;;;;;10.77;6.95;;;;;;;27.97;77.73;98643.94;5103670;27;20042;-85
2023/09/11 08:20:15;;;;;;;10.00;6.25;;;;;;;27.98;76.92;98651.72;5130050;27;20100;-84
2023/09/11 08:22:58;;;;;;;8.95;6.60;;;;;;;28.09;77.04;98649.47;5104876;27;20072;-84
2023/09/11 08:25:42;;;;;;;13.20;7.45;;;;;;;27.70;76.42;98652.06;5104109;27;20512;-85
2023/09/11 08:28:30;;;;;;;11.50;6.82;;;;;;;28.32;76.43;98650.09;5122387;27;20055;-84
2023/09/11 08:31:14;;;;;;;9.70;6.85;;;;;;;28.32;75.11;98649.28;5104060;27;20107;-85
2023/09/11 08:33:58;;;;;;;11.10;6.97;;;;;;;28.08;75.58;98650.59;5118953;27;20089;-87
2023/09/11 08:36:42;;;;;;;15.52;6.65;;;;;;;27.97;76.63;98650.16;5118092;27;20986;-84
2023/09/11 08:39:26;;;;;;;10.30;6.93;;;;;;;27.78;77.05;98647.78;5106754;27;20058;-85
2023/09/11 08:42:10;;;;;;;14.27;7.22;;;;;;;27.73;76.37;98651.44;5105636;27;20046;-83
2023/09/11 08:44:54;;;;;;;14.13;7.60;;;;;;;26.90;77.66;98642.31;5109345;27;20042;-85
2023/09/11 08:47:41;;;;;;;11.40;7.15;;;;;;;27.42;78.34;98640.81;5108687;27;20506;-84
2023/09/11 08:50:32;;;;;;;12.20;7.75;;;;;;;27.34;77.59;98640.47;5109964;27;20157;-84
2023/09/11 08:53:18;;;;;;;9.73;6.57;;;;;;;27.86;77.47;98649.69;5102791;27;20035;-85
2023/09/11 08:56:03;;;;;;;8.65;7.10;;;;;;;28.35;76.42;98654.84;5115562;27;20515;-85
2023/09/11 08:58:51;;;;;;;8.82;6.28;;;;;;;28.29;75.30;98648.00;5125445;27;20073;-84
2023/09/11 09:01:35;;;;;;;10.70;6.97;;;;;;;28.11;74.56;98659.97;5104076;27;20046;-83
2023/09/11 09:04:21;;;;;;;14.75;6.57;;;;;;;28.20;74.87;98663.44;5109770;27;20046;-84
2023/09/11 09:07:07;;;;;;;11.55;6.63;;;;;;;28.74;74.66;98651.34;5106843;27;20046;-83
2023/09/11 09:09:52;;;;;;;7.45;6.32;;;;;;;28.86;73.70;98648.75;5105566;27;20046;-84
2023/09/11 09:12:36;;;;;;;10.23;6.60;;;;;;;28.76;73.73;98643.69;5117854;27;20073;-84
2023/09/11 09:15:22;;;;;;;9.80;7.28;;;;;;;29.09;74.09;98645.78;5107536;27;20057;-84
2023/09/11 09:18:07;;;;;;;9.02;6.70;;;;;;;29.27;73.39;98649.13;5107681;28;20076;-83
2023/09/11 09:20:51;;;;;;;9.85;7.00;;;;;;;29.26;72.76;98655.66;5101224;28;20092;-85
2023/09/11 09:23:36;;;;;;;12.52;6.65;;;;;;;29.99;71.68;98653.63;5104737;27;20042;-84
2023/09/11 09:26:22;;;;;;;10.13;6.75;;;;;;;30.03;70.93;98654.56;5120570;27;20046;-83
2023/09/11 09:29:10;;;;;;;13.40;6.63;;;;;;;29.77;70.94;98650.16;5103750;28;20042;-86
2023/09/11 09:32:00;;;;;;;9.20;6.05;;;;;;;30.12;70.41;98640.16;5101083;28;20499;-83
2023/09/11 09:34:51;;;;;;;6.82;5.95;;;;;;;29.89;70.19;98657.53;5122338;28;20134;-84
2023/09/11 09:37:36;;;;;;;6.85;5.35;;;;;;;30.13;70.33;98655.25;5105682;28;20562;-84
2023/09/11 09:40:37;;;;;;;7.80;5.80;;;;;;;30.00;69.95;98654.41;5106702;28;20504;-85
2023/09/11 09:43:22;;;;;;;10.57;6.13;;;;;;;30.31;69.54;98659.34;5105500;28;20043;-85
2023/09/11 09:46:41;;;;;;;10.45;5.95;;;;;;;30.45;70.61;98663.63;5105350;28;20088;-84
2023/09/11 09:49:25;;;;;;;9.82;6.80;;;;;;;30.57;68.86;98658.25;5137908;27;20042;-82
2023/09/11 09:52:09;;;;;;;8.30;6.22;;;;;;;30.85;68.71;98660.28;5108935;28;20407;-83
2023/09/11 09:54:56;;;;;;;10.45;6.35;;;;;;;30.59;68.23;98669.53;5104285;28;20116;-84
2023/09/11 09:57:40;;;;;;;8.80;5.90;;;;;;;30.87;67.81;98663.47;5105907;28;20042;-82
2023/09/11 10:00:24;;;;;;;10.75;6.15;;;;;;;30.68;67.39;98668.66;5116790;28;20055;-86
2023/09/11 10:03:11;;;;;;;7.72;6.28;;;;;;;30.24;67.58;98659.09;5103198;28;20031;-84
2023/09/11 10:05:55;;;;;;;8.85;6.20;;;;;;;29.99;68.59;98659.03;5105532;28;20050;-84
2023/09/11 10:08:40;;;;;;;12.65;6.82;;;;;;;29.76;68.78;98664.81;5106876;28;20073;-84
2023/09/11 10:11:29;;;;;;;9.85;6.80;;;;;;;30.42;68.46;98662.41;5108936;28;20181;-84
2023/09/11 10:14:13;;;;;;;9.68;6.32;;;;;;;30.45;68.39;98660.94;5107066;27;20408;-84
2023/09/11 10:17:01;;;;;;;10.13;6.43;;;;;;;30.57;68.63;98658.25;5128592;27;20039;-85
2023/09/11 10:19:45;;;;;;;11.02;6.55;;;;;;;29.79;67.85;98650.63;5123537;27;20091;-84
2023/09/11 10:22:29;;;;;;;11.65;6.93;;;;;;;29.66;67.33;98651.69;5107721;27;20401;-85
2023/09/11 10:25:13;;;;;;;8.52;6.00;;;;;;;29.93;67.22;98654.97;5127854;27;20474;-85
2023/09/11 10:28:05;;;;;;;7.88;6.43;;;;;;;29.64;67.84;98654.75;5112170;27;20160;-84
2023/09/11 10:31:08;;;;;;;8.43;6.30;;;;;;;29.73;67.55;98654.66;5107723;27;20043;-84
2023/09/11 10:34:00;;;;;;;7.85;5.75;;;;;;;29.82;67.34;98659.19;5104796;27;20389;-84
2023/09/11 10:36:49;;;;;;;11.80;6.53;;;;;;;29.35;67.76;98655.59;5114587;27;20091;-84
2023/09/11 10:39:37;;;;;;;11.05;7.05;;;;;;;29.65;68.32;98652.81;5108363;27;20085;-85
2023/09/11 10:42:21;;;;;;;9.18;7.00;;;;;;;29.87;67.11;98653.56;5111660;27;20088;-84
2023/09/11 10:45:06;;;;;;;9.60;5.80;;;;;;;30.08;67.10;98652.78;5126871;27;20092;-84
2023/09/11 10:47:53;;;;;;;10.15;6.60;;;;;;;29.87;65.58;98657.06;5127215;27;20405;-84
2023/09/11 10:50:38;;;;;;;10.60;5.85;;;;;;;29.57;65.72;98661.81;5104563;27;20128;-84
2023/09/11 10:53:28;;;;;;;9.63;5.85;;;;;;;29.73;65.95;98651.16;5107702;27;20101;-85
2023/09/11 10:56:13;;;;;;;11.13;5.82;;;;;;;29.70;65.74;98647.22;5111419;27;20038;-84
2023/09/11 10:58:57;;;;;;;8.35;6.43;;;;;;;29.38;66.21;98644.13;5108308;27;20393;-85
2023/09/11 11:01:44;;;;;;;7.50;5.68;;;;;;;29.03;66.78;98639.75;5110019;27;20038;-85
2023/09/11 11:04:32;;;;;;;9.70;5.75;;;;;;;28.96;67.34;98660.31;5134546;27;20046;-85
2023/09/11 11:07:16;;;;;;;7.93;5.70;;;;;;;29.39;66.21;98648.41;5122047;27;20116;-84
2023/09/11 11:10:01;;;;;;;8.20;5.80;;;;;;;29.39;66.26;98656.50;5106506;27;20046;-84
2023/09/11 11:12:46;;;;;;;6.63;5.05;;;;;;;29.42;66.43;98655.09;5120985;27;20034;-84
2023/09/11 11:15:30;;;;;;;6.40;5.57;;;;;;;29.59;66.18;98654.16;5101124;27;20099;-85
2023/09/11 11:18:24;;;;;;;7.22;5.70;;;;;;;28.84;67.69;98664.50;5107447;27;20049;-84
2023/09/11 11:21:09;;;;;;;8.27;5.80;;;;;;;28.34;68.65;98666.75;5103737;27;20038;-85
2023/09/11 11:24:00;;;;;;;9.95;6.45;;;;;;;28.42;69.07;98654.34;5108671;27;20153;-84
2023/09/11 11:26:44;;;;;;;8.85;6.50;;;;;;;28.87;68.71;98658.44;5121033;27;20385;-85
2023/09/11 11:29:29;;;;;;;9.70;6.00;;;;;;;29.32;67.28;98650.84;5106072;27;20130;-84
2023/09/11 11:32:14;;;;;;;8.98;5.78;;;;;;;29.95;67.31;98658.13;5103668;27;20041;-84
2023/09/11 11:35:02;;;;;;;9.68;5.80;;;;;;;30.55;66.23;98649.66;5123314;27;20402;-84
2023/09/11 11:37:47;;;;;;;10.23;6.28;;;;;;;30.95;65.00;98655.53;5107245;27;20123;-85
2023/09/11 11:40:31;;;;;;;8.98;6.40;;;;;;;30.52;64.61;98655.75;5124811;27;20043;-86
2023/09/11 11:43:17;;;;;;;10.68;6.43;;;;;;;30.65;65.91;98656.59;5108224;27;20035;-86
2023/09/11 11:46:01;;;;;;;15.57;6.18;;;;;;;30.96;63.91;98647.09;5107096;27;20389;-85
2023/09/11 11:48:45;;;;;;;10.50;5.53;;;;;;;31.33;62.92;98643.53;5106988;27;20042;-84
2023/09/11 11:51:30;;;;;;;9.02;5.55;;;;;;;31.71;62.83;98666.66;5103371;27;20108;-85
2023/09/11 11:54:25;;;;;;;10.43;5.72;;;;;;;31.36;62.29;98661.03;5106003;27;20042;-84
2023/09/11 11:57:09;;;;;;;7.80;5.53;;;;;;;31.49;61.63;98660.66;5110065;27;20092;-84
2023/09/11 11:59:53;;;;;;;8.82;5.03;;;;;;;30.79;62.34;98664.34;5104827;27;20541;-85
2023/09/11 12:02:38;;;;;;;8.43;5.18;;;;;;;30.64;63.07;98669.31;5124386;27;20074;-85
2023/09/11 12:05:22;;;;;;;8.77;5.13;;;;;;;31.52;62.75;98651.00;5109121;27;20046;-84
2023/09/11 12:08:11;;;;;;;9.70;4.57;;;;;;;32.08;61.20;98665.72;5107376;27;20173;-84
2023/09/11 12:10:56;;;;;;;8.90;4.93;;;;;;;31.62;60.27;98660.59;5109495;27;20614;-84
2023/09/11 12:13:41;;;;;;;12.98;4.80;;;;;;;31.97;60.45;98654.56;5122638;27;20687;-85
2023/09/11 12:16:30;;;;;;;15.02;9.13;;;;;;;32.12;60.95;98657.66;5123882;27;20171;-84
2023/09/11 12:19:17;;;;;;;9.90;5.75;;;;;;;32.09;61.42;98659.13;5126761;27;20046;-86
2023/09/11 12:22:01;;;;;;;5.28;4.78;;;;;;;32.25;62.42;98648.31;5125872;27;20042;-84
2023/09/11 12:24:45;;;;;;;9.25;5.00;;;;;;;31.89;61.69;98648.16;5109938;27;20083;-85
2023/09/11 12:27:29;;;;;;;6.10;4.97;;;;;;;31.82;62.26;98661.56;5105271;27;20401;-85
2023/09/11 12:30:14;;;;;;;5.85;4.55;;;;;;;31.72;62.27;98646.53;5106613;27;20042;-84
2023/09/11 12:32:58;;;;;;;5.07;4.57;;;;;;;31.59;63.88;98647.72;5106269;27;20038;-85
2023/09/11 12:35:43;;;;;;;7.32;4.78;;;;;;;31.54;63.99;98642.53;5106596;28;20054;-85
2023/09/11 12:38:27;;;;;;;8.07;4.97;;;;;;;31.46;64.31;98647.78;5109155;27;20404;-85
2023/09/11 12:41:12;;;;;;;7.15;4.95;;;;;;;31.23;64.20;98649.41;5121155;27;20050;-84
2023/09/11 12:43:56;;;;;;;6.43;4.57;;;;;;;31.07;65.31;98650.13;5103234;27;20083;-85